sensor_id;sensor_type;location;lat;lon;timestamp;P1;durP1;ratioP1;P2;durP2;ratioP2
13435;SDS011;6790;49.520;8.504;2024-03-07T00:02:19;34.93;;;15.80;;
13435;SDS011;6790;49.520;8.504;2024-03-07T00:04:45;34.27;;;18.83;;
13435;SDS011;6790;49.520;8.504;2024-03-07T00:07:11;25.97;;;14.57;;
13435;SDS011;6790;49.520;8.504;2024-03-07T00:09:37;30.07;;;16.60;;
13435;SDS011;6790;49.520;8.504;2024-03-07T00:12:03;26.93;;;14.93;;
13435;SDS011;6790;49.520;8.504;2024-03-07T00:14:33;33.90;;;16.70;;
13435;SDS011;6790;49.520;8.504;2024-03-07T00:17:00;29.50;;;15.63;;
13435;SDS011;6790;49.520;8.504;2024-03-07T00:19:26;29.17;;;16.00;;
13435;SDS011;6790;49.520;8.504;2024-03-07T00:21:52;35.63;;;18.23;;
13435;SDS011;6790;49.520;8.504;2024-03-07T00:24:19;31.97;;;15.67;;
13435;SDS011;6790;49.520;8.504;2024-03-07T00:26:45;34.07;;;16.37;;
13435;SDS011;6790;49.520;8.504;2024-03-07T00:29:11;34.67;;;17.27;;
13435;SDS011;6790;49.520;8.504;2024-03-07T00:31:37;34.80;;;18.60;;
13435;SDS011;6790;49.520;8.504;2024-03-07T00:34:03;32.07;;;16.97;;
13435;SDS011;6790;49.520;8.504;2024-03-07T00:36:28;32.87;;;16.00;;
13435;SDS011;6790;49.520;8.504;2024-03-07T00:38:54;31.63;;;16.90;;
13435;SDS011;6790;49.520;8.504;2024-03-07T00:41:20;34.17;;;18.20;;
13435;SDS011;6790;49.520;8.504;2024-03-07T00:43:45;34.90;;;17.90;;
13435;SDS011;6790;49.520;8.504;2024-03-07T00:46:12;32.90;;;16.10;;
13435;SDS011;6790;49.520;8.504;2024-03-07T00:48:38;34.87;;;16.83;;
13435;SDS011;6790;49.520;8.504;2024-03-07T00:51:03;34.00;;;17.90;;
13435;SDS011;6790;49.520;8.504;2024-03-07T00:53:30;36.63;;;18.83;;
13435;SDS011;6790;49.520;8.504;2024-03-07T00:55:56;40.00;;;18.43;;
13435;SDS011;6790;49.520;8.504;2024-03-07T00:58:22;33.53;;;17.30;;
13435;SDS011;6790;49.520;8.504;2024-03-07T01:00:48;31.43;;;16.40;;
13435;SDS011;6790;49.520;8.504;2024-03-07T01:03:15;35.17;;;18.20;;
13435;SDS011;6790;49.520;8.504;2024-03-07T01:05:42;34.90;;;18.63;;
13435;SDS011;6790;49.520;8.504;2024-03-07T01:08:08;36.33;;;18.60;;
13435;SDS011;6790;49.520;8.504;2024-03-07T01:10:34;38.50;;;18.17;;
13435;SDS011;6790;49.520;8.504;2024-03-07T01:13:00;38.00;;;18.17;;
13435;SDS011;6790;49.520;8.504;2024-03-07T01:15:27;28.20;;;17.30;;
13435;SDS011;6790;49.520;8.504;2024-03-07T01:17:53;32.67;;;16.40;;
13435;SDS011;6790;49.520;8.504;2024-03-07T01:20:19;30.70;;;17.13;;
13435;SDS011;6790;49.520;8.504;2024-03-07T01:22:46;33.17;;;17.50;;
13435;SDS011;6790;49.520;8.504;2024-03-07T01:25:11;34.87;;;17.53;;
13435;SDS011;6790;49.520;8.504;2024-03-07T01:27:37;35.80;;;18.97;;
13435;SDS011;6790;49.520;8.504;2024-03-07T01:30:03;33.27;;;16.83;;
13435;SDS011;6790;49.520;8.504;2024-03-07T01:32:32;32.53;;;18.00;;
13435;SDS011;6790;49.520;8.504;2024-03-07T01:34:59;33.17;;;18.17;;
13435;SDS011;6790;49.520;8.504;2024-03-07T01:37:24;36.37;;;18.40;;
13435;SDS011;6790;49.520;8.504;2024-03-07T01:39:50;37.70;;;20.23;;
13435;SDS011;6790;49.520;8.504;2024-03-07T01:42:16;30.80;;;15.80;;
13435;SDS011;6790;49.520;8.504;2024-03-07T01:44:42;34.70;;;17.43;;
13435;SDS011;6790;49.520;8.504;2024-03-07T01:47:09;36.33;;;18.50;;
13435;SDS011;6790;49.520;8.504;2024-03-07T01:49:35;30.67;;;17.60;;
13435;SDS011;6790;49.520;8.504;2024-03-07T01:52:02;30.20;;;17.57;;
13435;SDS011;6790;49.520;8.504;2024-03-07T01:54:30;32.63;;;17.50;;
13435;SDS011;6790;49.520;8.504;2024-03-07T01:56:56;33.73;;;19.40;;
13435;SDS011;6790;49.520;8.504;2024-03-07T01:59:22;34.50;;;18.50;;
13435;SDS011;6790;49.520;8.504;2024-03-07T02:01:47;33.20;;;19.27;;
13435;SDS011;6790;49.520;8.504;2024-03-07T02:04:14;34.93;;;18.10;;
13435;SDS011;6790;49.520;8.504;2024-03-07T02:06:40;33.50;;;17.13;;
13435;SDS011;6790;49.520;8.504;2024-03-07T02:09:06;35.23;;;17.17;;
13435;SDS011;6790;49.520;8.504;2024-03-07T02:11:32;31.80;;;15.83;;
13435;SDS011;6790;49.520;8.504;2024-03-07T02:13:58;32.50;;;18.13;;
13435;SDS011;6790;49.520;8.504;2024-03-07T02:16:24;34.90;;;18.60;;
13435;SDS011;6790;49.520;8.504;2024-03-07T02:18:50;31.07;;;16.63;;
13435;SDS011;6790;49.520;8.504;2024-03-07T02:21:16;34.27;;;17.60;;
13435;SDS011;6790;49.520;8.504;2024-03-07T02:23:42;33.27;;;17.70;;
13435;SDS011;6790;49.520;8.504;2024-03-07T02:26:08;33.20;;;16.17;;
13435;SDS011;6790;49.520;8.504;2024-03-07T02:28:34;28.73;;;16.10;;
13435;SDS011;6790;49.520;8.504;2024-03-07T02:31:00;33.57;;;18.37;;
13435;SDS011;6790;49.520;8.504;2024-03-07T02:33:26;28.17;;;15.03;;
13435;SDS011;6790;49.520;8.504;2024-03-07T02:35:52;27.77;;;14.23;;
13435;SDS011;6790;49.520;8.504;2024-03-07T02:38:18;33.20;;;15.97;;
13435;SDS011;6790;49.520;8.504;2024-03-07T02:40:44;31.83;;;15.93;;
13435;SDS011;6790;49.520;8.504;2024-03-07T02:43:13;34.23;;;16.37;;
13435;SDS011;6790;49.520;8.504;2024-03-07T02:45:39;28.87;;;15.13;;
13435;SDS011;6790;49.520;8.504;2024-03-07T02:48:05;27.03;;;14.10;;
13435;SDS011;6790;49.520;8.504;2024-03-07T02:50:34;29.63;;;16.07;;
13435;SDS011;6790;49.520;8.504;2024-03-07T02:53:02;27.83;;;14.70;;
13435;SDS011;6790;49.520;8.504;2024-03-07T02:55:32;28.83;;;16.60;;
13435;SDS011;6790;49.520;8.504;2024-03-07T02:57:59;31.40;;;15.20;;
13435;SDS011;6790;49.520;8.504;2024-03-07T03:00:25;31.90;;;14.03;;
13435;SDS011;6790;49.520;8.504;2024-03-07T03:02:52;31.70;;;14.67;;
13435;SDS011;6790;49.520;8.504;2024-03-07T03:05:18;33.43;;;17.27;;
13435;SDS011;6790;49.520;8.504;2024-03-07T03:07:44;31.43;;;16.00;;
13435;SDS011;6790;49.520;8.504;2024-03-07T03:10:18;28.40;;;13.93;;
13435;SDS011;6790;49.520;8.504;2024-03-07T03:12:54;30.93;;;14.63;;
13435;SDS011;6790;49.520;8.504;2024-03-07T03:15:23;26.30;;;13.70;;
13435;SDS011;6790;49.520;8.504;2024-03-07T03:17:48;29.07;;;14.97;;
13435;SDS011;6790;49.520;8.504;2024-03-07T03:20:14;28.53;;;13.50;;
13435;SDS011;6790;49.520;8.504;2024-03-07T03:22:49;29.50;;;14.90;;
13435;SDS011;6790;49.520;8.504;2024-03-07T03:25:21;31.40;;;15.90;;
13435;SDS011;6790;49.520;8.504;2024-03-07T03:27:48;32.23;;;14.50;;
13435;SDS011;6790;49.520;8.504;2024-03-07T03:30:14;26.43;;;13.57;;
13435;SDS011;6790;49.520;8.504;2024-03-07T03:32:43;24.77;;;12.83;;
13435;SDS011;6790;49.520;8.504;2024-03-07T03:35:12;29.97;;;14.33;;
13435;SDS011;6790;49.520;8.504;2024-03-07T03:37:44;25.37;;;13.03;;
13435;SDS011;6790;49.520;8.504;2024-03-07T03:40:10;23.87;;;13.13;;
13435;SDS011;6790;49.520;8.504;2024-03-07T03:42:41;29.47;;;12.80;;
13435;SDS011;6790;49.520;8.504;2024-03-07T03:45:08;26.10;;;13.03;;
13435;SDS011;6790;49.520;8.504;2024-03-07T03:47:39;26.97;;;12.97;;
13435;SDS011;6790;49.520;8.504;2024-03-07T03:50:07;30.77;;;15.67;;
13435;SDS011;6790;49.520;8.504;2024-03-07T03:52:36;23.23;;;13.33;;
13435;SDS011;6790;49.520;8.504;2024-03-07T03:55:02;26.37;;;12.63;;
13435;SDS011;6790;49.520;8.504;2024-03-07T03:57:31;26.23;;;12.57;;
13435;SDS011;6790;49.520;8.504;2024-03-07T03:59:58;28.73;;;14.67;;
13435;SDS011;6790;49.520;8.504;2024-03-07T04:02:24;24.97;;;12.77;;
13435;SDS011;6790;49.520;8.504;2024-03-07T04:04:51;23.77;;;13.10;;
13435;SDS011;6790;49.520;8.504;2024-03-07T04:07:18;24.57;;;12.97;;
13435;SDS011;6790;49.520;8.504;2024-03-07T04:09:44;27.47;;;14.07;;
13435;SDS011;6790;49.520;8.504;2024-03-07T04:12:10;31.03;;;14.67;;
13435;SDS011;6790;49.520;8.504;2024-03-07T04:14:39;24.37;;;11.43;;
13435;SDS011;6790;49.520;8.504;2024-03-07T04:17:06;28.27;;;13.73;;
13435;SDS011;6790;49.520;8.504;2024-03-07T04:19:36;20.70;;;9.93;;
13435;SDS011;6790;49.520;8.504;2024-03-07T04:22:03;27.57;;;14.83;;
13435;SDS011;6790;49.520;8.504;2024-03-07T04:24:32;23.93;;;12.10;;
13435;SDS011;6790;49.520;8.504;2024-03-07T04:27:01;28.13;;;13.17;;
13435;SDS011;6790;49.520;8.504;2024-03-07T04:29:33;26.70;;;13.63;;
13435;SDS011;6790;49.520;8.504;2024-03-07T04:32:00;31.87;;;15.50;;
13435;SDS011;6790;49.520;8.504;2024-03-07T04:34:40;27.50;;;13.77;;
13435;SDS011;6790;49.520;8.504;2024-03-07T04:37:13;29.50;;;13.33;;
13435;SDS011;6790;49.520;8.504;2024-03-07T04:39:39;30.80;;;14.10;;
13435;SDS011;6790;49.520;8.504;2024-03-07T04:42:06;20.93;;;12.33;;
13435;SDS011;6790;49.520;8.504;2024-03-07T04:44:33;22.67;;;12.43;;
13435;SDS011;6790;49.520;8.504;2024-03-07T04:47:01;26.37;;;12.53;;
13435;SDS011;6790;49.520;8.504;2024-03-07T04:49:31;31.03;;;13.23;;
13435;SDS011;6790;49.520;8.504;2024-03-07T04:51:58;29.03;;;15.93;;
13435;SDS011;6790;49.520;8.504;2024-03-07T04:54:26;29.20;;;14.93;;
13435;SDS011;6790;49.520;8.504;2024-03-07T04:56:53;26.73;;;12.53;;
13435;SDS011;6790;49.520;8.504;2024-03-07T04:59:19;25.63;;;12.63;;
13435;SDS011;6790;49.520;8.504;2024-03-07T05:01:46;21.47;;;11.60;;
13435;SDS011;6790;49.520;8.504;2024-03-07T05:04:15;31.57;;;13.30;;
13435;SDS011;6790;49.520;8.504;2024-03-07T05:06:41;27.67;;;14.07;;
13435;SDS011;6790;49.520;8.504;2024-03-07T05:09:08;22.70;;;11.83;;
13435;SDS011;6790;49.520;8.504;2024-03-07T05:11:46;26.10;;;12.43;;
13435;SDS011;6790;49.520;8.504;2024-03-07T05:14:12;23.60;;;12.53;;
13435;SDS011;6790;49.520;8.504;2024-03-07T05:16:38;27.33;;;11.83;;
13435;SDS011;6790;49.520;8.504;2024-03-07T05:19:03;25.70;;;11.47;;
13435;SDS011;6790;49.520;8.504;2024-03-07T05:21:30;24.67;;;13.10;;
13435;SDS011;6790;49.520;8.504;2024-03-07T05:23:59;22.27;;;11.10;;
13435;SDS011;6790;49.520;8.504;2024-03-07T05:26:26;19.50;;;10.77;;
13435;SDS011;6790;49.520;8.504;2024-03-07T05:28:52;20.03;;;12.10;;
13435;SDS011;6790;49.520;8.504;2024-03-07T05:31:21;21.10;;;11.50;;
13435;SDS011;6790;49.520;8.504;2024-03-07T05:33:47;21.70;;;11.23;;
13435;SDS011;6790;49.520;8.504;2024-03-07T05:36:13;25.37;;;12.10;;
13435;SDS011;6790;49.520;8.504;2024-03-07T05:38:40;25.63;;;12.63;;
13435;SDS011;6790;49.520;8.504;2024-03-07T05:41:08;23.40;;;11.97;;
13435;SDS011;6790;49.520;8.504;2024-03-07T05:43:39;24.73;;;11.10;;
13435;SDS011;6790;49.520;8.504;2024-03-07T05:46:05;27.90;;;12.07;;
13435;SDS011;6790;49.520;8.504;2024-03-07T05:48:35;33.57;;;14.90;;
13435;SDS011;6790;49.520;8.504;2024-03-07T05:51:00;22.13;;;11.63;;
13435;SDS011;6790;49.520;8.504;2024-03-07T05:53:26;25.20;;;10.83;;
13435;SDS011;6790;49.520;8.504;2024-03-07T05:55:52;23.23;;;12.27;;
13435;SDS011;6790;49.520;8.504;2024-03-07T05:58:17;29.37;;;12.50;;
13435;SDS011;6790;49.520;8.504;2024-03-07T06:00:45;26.77;;;13.70;;
13435;SDS011;6790;49.520;8.504;2024-03-07T06:03:17;22.37;;;11.97;;
13435;SDS011;6790;49.520;8.504;2024-03-07T06:05:49;22.60;;;13.07;;
13435;SDS011;6790;49.520;8.504;2024-03-07T06:08:16;25.13;;;12.63;;
13435;SDS011;6790;49.520;8.504;2024-03-07T06:10:46;22.43;;;12.00;;
13435;SDS011;6790;49.520;8.504;2024-03-07T06:13:14;33.27;;;13.67;;
13435;SDS011;6790;49.520;8.504;2024-03-07T06:15:45;20.97;;;11.77;;
13435;SDS011;6790;49.520;8.504;2024-03-07T06:18:12;24.77;;;11.57;;
13435;SDS011;6790;49.520;8.504;2024-03-07T06:20:40;25.63;;;12.53;;
13435;SDS011;6790;49.520;8.504;2024-03-07T06:23:06;24.83;;;13.70;;
13435;SDS011;6790;49.520;8.504;2024-03-07T06:25:32;26.70;;;13.63;;
13435;SDS011;6790;49.520;8.504;2024-03-07T06:28:02;25.10;;;13.47;;
13435;SDS011;6790;49.520;8.504;2024-03-07T06:30:35;29.03;;;14.23;;
13435;SDS011;6790;49.520;8.504;2024-03-07T06:33:02;38.00;;;17.80;;
13435;SDS011;6790;49.520;8.504;2024-03-07T06:35:29;55.93;;;25.60;;
13435;SDS011;6790;49.520;8.504;2024-03-07T06:37:54;103.33;;;43.27;;
13435;SDS011;6790;49.520;8.504;2024-03-07T06:40:20;44.43;;;19.43;;
13435;SDS011;6790;49.520;8.504;2024-03-07T06:42:47;40.73;;;19.67;;
13435;SDS011;6790;49.520;8.504;2024-03-07T06:45:44;36.30;;;15.50;;
13435;SDS011;6790;49.520;8.504;2024-03-07T06:48:11;35.70;;;16.53;;
13435;SDS011;6790;49.520;8.504;2024-03-07T06:50:39;33.47;;;15.10;;
13435;SDS011;6790;49.520;8.504;2024-03-07T06:53:05;51.93;;;21.37;;
13435;SDS011;6790;49.520;8.504;2024-03-07T06:55:32;33.97;;;15.47;;
13435;SDS011;6790;49.520;8.504;2024-03-07T06:58:01;24.80;;;13.03;;
13435;SDS011;6790;49.520;8.504;2024-03-07T07:00:30;28.37;;;13.37;;
13435;SDS011;6790;49.520;8.504;2024-03-07T07:03:00;34.57;;;15.70;;
13435;SDS011;6790;49.520;8.504;2024-03-07T07:05:28;34.50;;;16.53;;
13435;SDS011;6790;49.520;8.504;2024-03-07T07:07:55;31.63;;;14.37;;
13435;SDS011;6790;49.520;8.504;2024-03-07T07:10:20;27.97;;;14.63;;
13435;SDS011;6790;49.520;8.504;2024-03-07T07:12:49;29.33;;;14.63;;
13435;SDS011;6790;49.520;8.504;2024-03-07T07:15:16;25.97;;;14.03;;
13435;SDS011;6790;49.520;8.504;2024-03-07T07:17:46;33.67;;;15.23;;
13435;SDS011;6790;49.520;8.504;2024-03-07T07:20:14;33.27;;;16.33;;
13435;SDS011;6790;49.520;8.504;2024-03-07T07:22:44;31.63;;;16.23;;
13435;SDS011;6790;49.520;8.504;2024-03-07T07:25:12;35.93;;;17.63;;
13435;SDS011;6790;49.520;8.504;2024-03-07T07:27:45;32.63;;;16.47;;
13435;SDS011;6790;49.520;8.504;2024-03-07T07:30:14;31.63;;;16.47;;
13435;SDS011;6790;49.520;8.504;2024-03-07T07:32:42;33.87;;;17.63;;
13435;SDS011;6790;49.520;8.504;2024-03-07T07:35:09;31.90;;;17.17;;
13435;SDS011;6790;49.520;8.504;2024-03-07T07:37:58;31.43;;;16.20;;
13435;SDS011;6790;49.520;8.504;2024-03-07T07:40:24;31.67;;;16.00;;
13435;SDS011;6790;49.520;8.504;2024-03-07T07:42:52;34.70;;;15.77;;
13435;SDS011;6790;49.520;8.504;2024-03-07T07:45:18;28.87;;;15.17;;
13435;SDS011;6790;49.520;8.504;2024-03-07T07:47:47;32.37;;;16.33;;
13435;SDS011;6790;49.520;8.504;2024-03-07T07:50:16;36.40;;;16.60;;
13435;SDS011;6790;49.520;8.504;2024-03-07T07:52:48;30.20;;;13.80;;
13435;SDS011;6790;49.520;8.504;2024-03-07T07:55:19;33.47;;;15.63;;
13435;SDS011;6790;49.520;8.504;2024-03-07T07:57:52;29.73;;;14.60;;
13435;SDS011;6790;49.520;8.504;2024-03-07T08:00:21;27.77;;;15.17;;
13435;SDS011;6790;49.520;8.504;2024-03-07T08:02:59;30.47;;;15.23;;
13435;SDS011;6790;49.520;8.504;2024-03-07T08:05:30;30.73;;;16.20;;
13435;SDS011;6790;49.520;8.504;2024-03-07T08:07:58;32.40;;;18.27;;
13435;SDS011;6790;49.520;8.504;2024-03-07T08:10:33;37.33;;;17.30;;
13435;SDS011;6790;49.520;8.504;2024-03-07T08:13:01;33.97;;;17.27;;
13435;SDS011;6790;49.520;8.504;2024-03-07T08:15:30;28.67;;;14.90;;
13435;SDS011;6790;49.520;8.504;2024-03-07T08:17:56;29.03;;;14.80;;
13435;SDS011;6790;49.520;8.504;2024-03-07T08:20:24;28.87;;;15.03;;
13435;SDS011;6790;49.520;8.504;2024-03-07T08:22:52;25.83;;;13.63;;
13435;SDS011;6790;49.520;8.504;2024-03-07T08:25:20;28.20;;;15.33;;
13435;SDS011;6790;49.520;8.504;2024-03-07T08:27:49;26.20;;;14.70;;
13435;SDS011;6790;49.520;8.504;2024-03-07T08:30:16;23.93;;;13.87;;
13435;SDS011;6790;49.520;8.504;2024-03-07T08:32:47;24.17;;;13.50;;
13435;SDS011;6790;49.520;8.504;2024-03-07T08:35:17;25.43;;;12.63;;
13435;SDS011;6790;49.520;8.504;2024-03-07T08:37:44;21.53;;;11.93;;
13435;SDS011;6790;49.520;8.504;2024-03-07T08:40:12;26.07;;;12.57;;
13435;SDS011;6790;49.520;8.504;2024-03-07T08:42:47;20.13;;;12.50;;
13435;SDS011;6790;49.520;8.504;2024-03-07T08:45:18;22.67;;;13.13;;
13435;SDS011;6790;49.520;8.504;2024-03-07T08:47:47;18.83;;;11.23;;
13435;SDS011;6790;49.520;8.504;2024-03-07T08:50:17;15.40;;;11.17;;
13435;SDS011;6790;49.520;8.504;2024-03-07T08:52:44;18.23;;;10.33;;
13435;SDS011;6790;49.520;8.504;2024-03-07T08:55:15;18.00;;;11.03;;
13435;SDS011;6790;49.520;8.504;2024-03-07T08:57:42;15.60;;;10.00;;
13435;SDS011;6790;49.520;8.504;2024-03-07T09:00:11;16.30;;;10.27;;
13435;SDS011;6790;49.520;8.504;2024-03-07T09:02:47;16.47;;;9.77;;
13435;SDS011;6790;49.520;8.504;2024-03-07T09:05:17;18.37;;;11.00;;
13435;SDS011;6790;49.520;8.504;2024-03-07T09:07:43;15.87;;;9.77;;
13435;SDS011;6790;49.520;8.504;2024-03-07T09:10:11;15.87;;;10.27;;
13435;SDS011;6790;49.520;8.504;2024-03-07T09:12:39;13.40;;;9.83;;
13435;SDS011;6790;49.520;8.504;2024-03-07T09:15:05;16.77;;;9.47;;
13435;SDS011;6790;49.520;8.504;2024-03-07T09:17:31;14.47;;;8.80;;
13435;SDS011;6790;49.520;8.504;2024-03-07T09:19:57;12.87;;;9.30;;
13435;SDS011;6790;49.520;8.504;2024-03-07T09:22:23;15.60;;;9.33;;
13435;SDS011;6790;49.520;8.504;2024-03-07T09:24:49;14.03;;;9.63;;
13435;SDS011;6790;49.520;8.504;2024-03-07T09:27:14;15.30;;;11.03;;
13435;SDS011;6790;49.520;8.504;2024-03-07T09:29:44;13.80;;;9.93;;
13435;SDS011;6790;49.520;8.504;2024-03-07T09:32:12;14.10;;;10.07;;
13435;SDS011;6790;49.520;8.504;2024-03-07T09:34:38;14.07;;;10.10;;
13435;SDS011;6790;49.520;8.504;2024-03-07T09:37:04;13.20;;;9.30;;
13435;SDS011;6790;49.520;8.504;2024-03-07T09:39:32;15.40;;;8.70;;
13435;SDS011;6790;49.520;8.504;2024-03-07T09:41:59;15.60;;;11.67;;
13435;SDS011;6790;49.520;8.504;2024-03-07T09:44:34;16.37;;;10.63;;
13435;SDS011;6790;49.520;8.504;2024-03-07T09:47:04;14.43;;;10.03;;
13435;SDS011;6790;49.520;8.504;2024-03-07T09:49:31;13.70;;;10.30;;
13435;SDS011;6790;49.520;8.504;2024-03-07T09:52:01;18.47;;;10.67;;
13435;SDS011;6790;49.520;8.504;2024-03-07T09:54:36;13.40;;;9.93;;
13435;SDS011;6790;49.520;8.504;2024-03-07T09:57:04;14.50;;;9.40;;
13435;SDS011;6790;49.520;8.504;2024-03-07T09:59:34;14.93;;;10.53;;
13435;SDS011;6790;49.520;8.504;2024-03-07T10:02:01;17.53;;;11.90;;
13435;SDS011;6790;49.520;8.504;2024-03-07T10:04:33;16.47;;;11.13;;
13435;SDS011;6790;49.520;8.504;2024-03-07T10:07:16;16.00;;;10.50;;
13435;SDS011;6790;49.520;8.504;2024-03-07T10:09:43;15.57;;;10.53;;
13435;SDS011;6790;49.520;8.504;2024-03-07T10:12:10;14.80;;;10.07;;
13435;SDS011;6790;49.520;8.504;2024-03-07T10:14:37;16.43;;;11.37;;
13435;SDS011;6790;49.520;8.504;2024-03-07T10:17:04;17.00;;;10.27;;
13435;SDS011;6790;49.520;8.504;2024-03-07T10:19:30;14.70;;;10.03;;
13435;SDS011;6790;49.520;8.504;2024-03-07T10:21:56;13.50;;;9.80;;
13435;SDS011;6790;49.520;8.504;2024-03-07T10:24:26;15.23;;;9.97;;
13435;SDS011;6790;49.520;8.504;2024-03-07T10:26:53;17.70;;;11.23;;
13435;SDS011;6790;49.520;8.504;2024-03-07T10:29:22;15.23;;;10.50;;
13435;SDS011;6790;49.520;8.504;2024-03-07T10:31:48;15.17;;;10.47;;
13435;SDS011;6790;49.520;8.504;2024-03-07T10:34:14;16.00;;;11.20;;
13435;SDS011;6790;49.520;8.504;2024-03-07T10:36:42;18.17;;;10.60;;
13435;SDS011;6790;49.520;8.504;2024-03-07T10:39:08;17.50;;;11.93;;
13435;SDS011;6790;49.520;8.504;2024-03-07T10:41:48;13.53;;;10.13;;
13435;SDS011;6790;49.520;8.504;2024-03-07T10:44:24;16.17;;;11.60;;
13435;SDS011;6790;49.520;8.504;2024-03-07T10:46:57;22.33;;;13.07;;
13435;SDS011;6790;49.520;8.504;2024-03-07T10:49:29;16.90;;;11.50;;
13435;SDS011;6790;49.520;8.504;2024-03-07T10:52:02;16.23;;;12.03;;
13435;SDS011;6790;49.520;8.504;2024-03-07T10:54:40;17.93;;;12.30;;
13435;SDS011;6790;49.520;8.504;2024-03-07T11:00:11;15.43;;;10.83;;
13435;SDS011;6790;49.520;8.504;2024-03-07T11:02:55;19.70;;;12.60;;
13435;SDS011;6790;49.520;8.504;2024-03-07T11:05:23;15.80;;;11.53;;
13435;SDS011;6790;49.520;8.504;2024-03-07T11:07:54;16.93;;;12.07;;
13435;SDS011;6790;49.520;8.504;2024-03-07T11:10:22;22.23;;;12.03;;
13435;SDS011;6790;49.520;8.504;2024-03-07T11:12:49;18.50;;;13.03;;
13435;SDS011;6790;49.520;8.504;2024-03-07T11:15:16;18.73;;;12.60;;
13435;SDS011;6790;49.520;8.504;2024-03-07T11:17:45;17.33;;;11.67;;
13435;SDS011;6790;49.520;8.504;2024-03-07T11:20:19;17.93;;;11.63;;
13435;SDS011;6790;49.520;8.504;2024-03-07T11:22:49;18.60;;;12.97;;
13435;SDS011;6790;49.520;8.504;2024-03-07T11:25:19;17.77;;;12.03;;
13435;SDS011;6790;49.520;8.504;2024-03-07T11:28:00;14.67;;;10.77;;
13435;SDS011;6790;49.520;8.504;2024-03-07T11:30:27;17.43;;;11.97;;
13435;SDS011;6790;49.520;8.504;2024-03-07T11:32:55;17.33;;;11.53;;
13435;SDS011;6790;49.520;8.504;2024-03-07T11:35:33;16.50;;;11.33;;
13435;SDS011;6790;49.520;8.504;2024-03-07T11:38:02;20.20;;;12.07;;
13435;SDS011;6790;49.520;8.504;2024-03-07T11:43:04;17.57;;;11.37;;
13435;SDS011;6790;49.520;8.504;2024-03-07T11:45:31;21.53;;;11.17;;
13435;SDS011;6790;49.520;8.504;2024-03-07T11:48:03;20.80;;;12.43;;
13435;SDS011;6790;49.520;8.504;2024-03-07T11:50:33;18.30;;;12.27;;
13435;SDS011;6790;49.520;8.504;2024-03-07T11:53:02;19.27;;;12.47;;
13435;SDS011;6790;49.520;8.504;2024-03-07T11:55:33;17.03;;;12.63;;
13435;SDS011;6790;49.520;8.504;2024-03-07T11:58:13;19.53;;;12.63;;
13435;SDS011;6790;49.520;8.504;2024-03-07T12:00:46;17.20;;;12.33;;
13435;SDS011;6790;49.520;8.504;2024-03-07T12:03:14;17.37;;;12.70;;
13435;SDS011;6790;49.520;8.504;2024-03-07T12:05:46;17.90;;;12.47;;
13435;SDS011;6790;49.520;8.504;2024-03-07T12:08:12;19.40;;;13.13;;
13435;SDS011;6790;49.520;8.504;2024-03-07T12:10:39;15.53;;;10.83;;
13435;SDS011;6790;49.520;8.504;2024-03-07T12:13:11;18.87;;;12.73;;
13435;SDS011;6790;49.520;8.504;2024-03-07T12:15:40;16.63;;;11.70;;
13435;SDS011;6790;49.520;8.504;2024-03-07T12:18:07;16.80;;;11.90;;
13435;SDS011;6790;49.520;8.504;2024-03-07T12:20:36;16.00;;;10.30;;
13435;SDS011;6790;49.520;8.504;2024-03-07T12:23:03;17.73;;;11.73;;
13435;SDS011;6790;49.520;8.504;2024-03-07T12:25:33;16.97;;;11.23;;
13435;SDS011;6790;49.520;8.504;2024-03-07T12:28:03;14.43;;;10.70;;
13435;SDS011;6790;49.520;8.504;2024-03-07T12:33:19;15.13;;;10.63;;
13435;SDS011;6790;49.520;8.504;2024-03-07T12:35:48;16.97;;;10.80;;
13435;SDS011;6790;49.520;8.504;2024-03-07T12:38:17;15.27;;;10.60;;
13435;SDS011;6790;49.520;8.504;2024-03-07T12:41:01;15.23;;;10.80;;
13435;SDS011;6790;49.520;8.504;2024-03-07T12:43:32;14.00;;;10.90;;
13435;SDS011;6790;49.520;8.504;2024-03-07T12:45:58;15.17;;;10.17;;
13435;SDS011;6790;49.520;8.504;2024-03-07T12:48:24;15.33;;;10.63;;
13435;SDS011;6790;49.520;8.504;2024-03-07T12:50:50;15.10;;;9.73;;
13435;SDS011;6790;49.520;8.504;2024-03-07T12:53:20;12.70;;;9.17;;
13435;SDS011;6790;49.520;8.504;2024-03-07T12:55:54;13.33;;;9.67;;
13435;SDS011;6790;49.520;8.504;2024-03-07T12:58:19;14.03;;;9.10;;
13435;SDS011;6790;49.520;8.504;2024-03-07T13:00:47;12.33;;;9.67;;
13435;SDS011;6790;49.520;8.504;2024-03-07T13:03:12;16.70;;;9.87;;
13435;SDS011;6790;49.520;8.504;2024-03-07T13:05:39;11.67;;;9.30;;
13435;SDS011;6790;49.520;8.504;2024-03-07T13:08:06;13.73;;;9.53;;
13435;SDS011;6790;49.520;8.504;2024-03-07T13:10:39;13.10;;;9.73;;
13435;SDS011;6790;49.520;8.504;2024-03-07T13:13:07;13.37;;;9.20;;
13435;SDS011;6790;49.520;8.504;2024-03-07T13:15:34;13.50;;;9.17;;
13435;SDS011;6790;49.520;8.504;2024-03-07T13:18:02;14.67;;;8.47;;
13435;SDS011;6790;49.520;8.504;2024-03-07T13:20:30;11.83;;;8.73;;
13435;SDS011;6790;49.520;8.504;2024-03-07T13:22:55;13.53;;;8.90;;
13435;SDS011;6790;49.520;8.504;2024-03-07T13:25:23;14.67;;;8.33;;
13435;SDS011;6790;49.520;8.504;2024-03-07T13:27:59;34.17;;;22.57;;
13435;SDS011;6790;49.520;8.504;2024-03-07T13:30:49;15.33;;;10.23;;
13435;SDS011;6790;49.520;8.504;2024-03-07T13:33:15;14.93;;;10.60;;
13435;SDS011;6790;49.520;8.504;2024-03-07T13:35:41;13.27;;;10.23;;
13435;SDS011;6790;49.520;8.504;2024-03-07T13:38:07;12.63;;;8.67;;
13435;SDS011;6790;49.520;8.504;2024-03-07T13:40:34;13.90;;;8.97;;
13435;SDS011;6790;49.520;8.504;2024-03-07T13:43:03;14.80;;;9.93;;
13435;SDS011;6790;49.520;8.504;2024-03-07T13:45:30;12.30;;;8.37;;
13435;SDS011;6790;49.520;8.504;2024-03-07T13:48:04;11.40;;;8.10;;
13435;SDS011;6790;49.520;8.504;2024-03-07T13:50:32;12.43;;;8.13;;
13435;SDS011;6790;49.520;8.504;2024-03-07T13:52:59;13.93;;;8.73;;
13435;SDS011;6790;49.520;8.504;2024-03-07T14:21:58;12.73;;;9.50;;
13435;SDS011;6790;49.520;8.504;2024-03-07T14:27:50;11.50;;;8.03;;
13435;SDS011;6790;49.520;8.504;2024-03-07T14:33:32;26.17;;;15.77;;
13435;SDS011;6790;49.520;8.504;2024-03-07T14:36:15;16.30;;;10.43;;
13435;SDS011;6790;49.520;8.504;2024-03-07T14:38:51;19.43;;;13.87;;
13435;SDS011;6790;49.520;8.504;2024-03-07T14:41:20;18.43;;;12.73;;
13435;SDS011;6790;49.520;8.504;2024-03-07T14:43:50;13.07;;;9.87;;
13435;SDS011;6790;49.520;8.504;2024-03-07T14:46:16;12.40;;;8.63;;
13435;SDS011;6790;49.520;8.504;2024-03-07T14:48:43;13.00;;;9.30;;
13435;SDS011;6790;49.520;8.504;2024-03-07T14:51:09;16.90;;;11.70;;
13435;SDS011;6790;49.520;8.504;2024-03-07T14:53:38;20.60;;;13.73;;
13435;SDS011;6790;49.520;8.504;2024-03-07T14:56:06;14.17;;;9.30;;
13435;SDS011;6790;49.520;8.504;2024-03-07T14:58:34;10.33;;;8.07;;
13435;SDS011;6790;49.520;8.504;2024-03-07T15:01:00;12.97;;;8.83;;
13435;SDS011;6790;49.520;8.504;2024-03-07T15:03:26;15.90;;;8.63;;
13435;SDS011;6790;49.520;8.504;2024-03-07T15:05:55;12.87;;;9.30;;
13435;SDS011;6790;49.520;8.504;2024-03-07T15:08:21;10.77;;;8.57;;
13435;SDS011;6790;49.520;8.504;2024-03-07T15:10:50;10.50;;;8.57;;
13435;SDS011;6790;49.520;8.504;2024-03-07T15:13:22;10.07;;;8.00;;
13435;SDS011;6790;49.520;8.504;2024-03-07T15:15:48;11.27;;;8.10;;
13435;SDS011;6790;49.520;8.504;2024-03-07T15:18:14;12.73;;;8.50;;
13435;SDS011;6790;49.520;8.504;2024-03-07T15:20:39;10.77;;;8.17;;
13435;SDS011;6790;49.520;8.504;2024-03-07T15:23:06;11.90;;;8.70;;
13435;SDS011;6790;49.520;8.504;2024-03-07T15:25:32;10.70;;;7.57;;